Time;durP1;ratioP1;P1;durP2;ratioP2;P2;SDS_P1;SDS_P2;PMS_P1;PMS_P2;Temp;Humidity;BMP_temperature;BMP_pressure;BME280_temperature;BME280_humidity;BME280_pressure;Samples;Min_cycle;Max_cycle;Signal;HPM_P1;HPM_P2
2023/07/23 00:02:08;;;;;;;;;6.33;5.00;;;;;-147.70;100.00;61350.09;5054021;28;45447;-71
2023/07/23 00:04:33;;;;;;;;;5.00;5.00;;;;;-147.70;100.00;61350.09;5042059;28;46284;-71
2023/07/23 00:06:58;;;;;;;;;4.00;4.00;;;;;-147.70;100.00;61350.09;5051606;28;45141;-70
2023/07/23 00:09:24;;;;;;;;;6.00;6.00;;;;;-147.70;100.00;61350.09;5043173;28;45170;-71
2023/07/23 00:11:49;;;;;;;;;6.67;4.33;;;;;-147.70;100.00;61350.09;5036299;28;45358;-72
2023/07/23 00:14:15;;;;;;;;;5.67;5.67;;;;;-147.70;100.00;61350.09;5049680;28;45890;-72
2023/07/23 00:16:40;;;;;;;;;9.67;6.33;;;;;-147.70;100.00;61350.09;5037874;28;45327;-71
2023/07/23 00:19:06;;;;;;;;;9.00;6.00;;;;;-147.70;100.00;61350.09;5045360;28;45391;-71
2023/07/23 00:21:31;;;;;;;;;7.67;6.00;;;;;-147.70;100.00;61350.09;5043963;28;47003;-72
2023/07/23 00:23:57;;;;;;;;;7.00;5.00;;;;;-147.70;100.00;61350.09;5050088;28;45581;-72
2023/07/23 00:26:22;;;;;;;;;5.67;4.00;;;;;-147.70;100.00;61350.09;5040316;28;45408;-73
2023/07/23 00:28:47;;;;;;;;;6.33;5.00;;;;;-147.70;100.00;61350.09;5042820;28;45457;-72
2023/07/23 00:31:13;;;;;;;;;8.33;7.00;;;;;-147.70;100.00;61350.09;5042573;28;46206;-73
2023/07/23 00:33:38;;;;;;;;;6.00;5.00;;;;;-147.70;100.00;61350.09;5055583;28;45463;-71
2023/07/23 00:36:03;;;;;;;;;8.00;6.00;;;;;-147.70;100.00;61350.09;5050988;28;45520;-72
2023/07/23 00:38:29;;;;;;;;;4.00;4.00;;;;;-147.70;100.00;61350.09;5048598;28;45374;-71
2023/07/23 00:40:56;;;;;;;;;6.33;5.00;;;;;-147.70;100.00;61350.09;5053415;28;46280;-73
2023/07/23 00:43:22;;;;;;;;;6.00;4.00;;;;;-147.70;100.00;61350.09;5051818;28;45440;-73
2023/07/23 00:45:47;;;;;;;;;6.00;6.00;;;;;-147.70;100.00;61350.09;5053985;28;45511;-74
2023/07/23 00:48:13;;;;;;;;;3.00;3.00;;;;;-147.70;100.00;61350.09;5044965;28;45423;-72
2023/07/23 00:50:39;;;;;;;;;5.00;3.33;;;;;-147.70;100.00;61350.09;5047377;28;46802;-72
2023/07/23 00:53:04;;;;;;;;;5.00;4.00;;;;;-147.70;100.00;61350.09;5048881;28;45488;-73
2023/07/23 00:55:30;;;;;;;;;6.00;5.00;;;;;-147.70;100.00;61350.09;5051250;28;45537;-71
2023/07/23 00:57:56;;;;;;;;;5.00;3.00;;;;;-147.70;100.00;61350.09;5046416;28;45367;-73
2023/07/23 01:00:21;;;;;;;;;4.33;3.00;;;;;-147.70;100.00;61350.09;5044860;28;46557;-72
2023/07/23 01:02:47;;;;;;;;;8.00;3.00;;;;;-147.70;100.00;61350.09;5046829;28;45520;-73
2023/07/23 01:05:14;;;;;;;;;8.00;8.00;;;;;-147.70;100.00;61350.09;5047617;28;45472;-71
2023/07/23 01:07:42;;;;;;;;;5.00;4.00;;;;;-147.70;100.00;61350.09;5045567;28;45310;-73
2023/07/23 01:10:09;;;;;;;;;5.00;3.33;;;;;-147.70;100.00;61350.09;5046362;28;45594;-71
2023/07/23 01:12:38;;;;;;;;;4.00;4.00;;;;;-147.70;100.00;61350.09;5044771;28;45336;-71
2023/07/23 01:15:05;;;;;;;;;3.33;3.33;;;;;-147.70;100.00;61350.09;5042849;28;45417;-73
2023/07/23 01:17:33;;;;;;;;;5.33;5.33;;;;;-147.70;100.00;61350.09;5041424;28;45412;-73
2023/07/23 01:20:07;;;;;;;;;4.00;4.00;;;;;-147.70;100.00;61350.09;5043718;28;45485;-73
2023/07/23 01:22:34;;;;;;;;;6.67;4.67;;;;;-147.70;100.00;61350.09;5034257;28;45402;-73
2023/07/23 01:25:00;;;;;;;;;2.33;2.33;;;;;-147.70;100.00;61350.09;5047089;28;45448;-73
2023/07/23 01:27:25;;;;;;;;;3.00;3.00;;;;;-147.70;100.00;61350.09;5043159;28;45460;-72
2023/07/23 01:29:51;;;;;;;;;5.00;4.00;;;;;-147.70;100.00;61350.09;5047216;28;46300;-74
2023/07/23 01:32:16;;;;;;;;;3.67;3.67;;;;;-147.70;100.00;61350.09;5050774;28;45394;-73
2023/07/23 01:34:42;;;;;;;;;7.00;3.67;;;;;-147.70;100.00;61350.09;5054541;28;45387;-73
2023/07/23 01:37:10;;;;;;;;;4.00;2.67;;;;;-147.70;100.00;61350.09;5051232;28;45314;-73
2023/07/23 01:39:36;;;;;;;;;3.67;3.67;;;;;-147.70;100.00;61350.09;5053453;28;46522;-73
2023/07/23 01:42:02;;;;;;;;;3.67;3.67;;;;;-147.70;100.00;61350.09;5049475;28;45222;-75
2023/07/23 01:44:28;;;;;;;;;5.33;4.00;;;;;-147.70;100.00;61350.09;5053063;28;45553;-73
2023/07/23 01:46:54;;;;;;;;;3.67;3.00;;;;;-147.70;100.00;61350.09;5040583;28;45548;-76
2023/07/23 01:49:19;;;;;;;;;4.33;4.00;;;;;-147.70;100.00;61350.09;5038808;28;47294;-75
2023/07/23 01:51:44;;;;;;;;;4.00;4.00;;;;;-147.70;100.00;61350.09;5041444;28;45323;-74
2023/07/23 01:54:10;;;;;;;;;4.00;3.00;;;;;-147.70;100.00;61350.09;5049638;28;45374;-74
2023/07/23 01:56:35;;;;;;;;;4.67;4.00;;;;;-147.70;100.00;61350.09;5044900;28;45421;-74
2023/07/23 01:59:01;;;;;;;;;7.00;3.67;;;;;-147.70;100.00;61350.09;5058285;28;45638;-74
2023/07/23 02:01:28;;;;;;;;;5.00;3.67;;;;;-147.70;100.00;61350.09;5055881;28;45370;-74
2023/07/23 02:03:53;;;;;;;;;6.00;4.00;;;;;-147.70;100.00;61350.09;5046360;28;45382;-74
2023/07/23 02:06:18;;;;;;;;;4.67;4.00;;;;;-147.70;100.00;61350.09;5046802;27;45377;-74
2023/07/23 02:08:44;;;;;;;;;3.67;3.67;;;;;-147.70;100.00;61350.09;5056372;28;47372;-74
2023/07/23 02:11:09;;;;;;;;;4.00;2.33;;;;;-147.70;100.00;61350.09;5056836;28;45470;-74
2023/07/23 02:13:35;;;;;;;;;6.67;4.00;;;;;-147.70;100.00;61350.09;5047093;28;45476;-75
2023/07/23 02:16:00;;;;;;;;;4.00;4.00;;;;;-147.70;100.00;61350.09;5047913;28;45368;-73
2023/07/23 02:18:25;;;;;;;;;3.33;2.00;;;;;-147.70;100.00;61350.09;5043259;28;46140;-73
2023/07/23 02:20:51;;;;;;;;;4.33;4.00;;;;;-147.70;100.00;61350.09;5058413;28;45466;-74
2023/07/23 02:23:16;;;;;;;;;6.33;3.00;;;;;-147.70;100.00;61350.09;5053864;28;45818;-75
2023/07/23 02:25:42;;;;;;;;;3.00;3.00;;;;;-147.70;100.00;61350.09;5058466;28;45421;-73
2023/07/23 02:28:09;;;;;;;;;4.67;4.00;;;;;-147.70;100.00;61350.09;5056847;28;45573;-74
2023/07/23 02:30:34;;;;;;;;;3.00;3.00;;;;;-147.70;100.00;61350.09;5057064;28;45234;-73
2023/07/23 02:32:59;;;;;;;;;7.00;5.00;;;;;-147.70;100.00;61350.09;5058869;28;45298;-73
2023/07/23 02:35:25;;;;;;;;;3.67;3.00;;;;;-147.70;100.00;61350.09;5047738;28;45419;-74
2023/07/23 02:37:50;;;;;;;;;6.33;5.00;;;;;-147.70;100.00;61350.09;5038134;28;46569;-73
2023/07/23 02:40:16;;;;;;;;;6.00;6.00;;;;;-147.70;100.00;61350.09;5045035;28;45278;-73
2023/07/23 02:42:41;;;;;;;;;2.00;2.00;;;;;-147.70;100.00;61350.09;5052423;28;45354;-73
2023/07/23 02:45:07;;;;;;;;;4.67;3.00;;;;;-147.70;100.00;61350.09;5044201;28;45331;-73
2023/07/23 02:47:32;;;;;;;;;5.00;3.00;;;;;-147.70;100.00;61350.09;5057814;28;46267;-73
2023/07/23 02:49:57;;;;;;;;;4.00;4.00;;;;;-147.70;100.00;61350.09;5041310;28;45389;-74
2023/07/23 02:52:23;;;;;;;;;6.00;3.67;;;;;-147.70;100.00;61350.09;5038130;28;45501;-74
2023/07/23 02:54:49;;;;;;;;;4.33;2.33;;;;;-147.70;100.00;61350.09;5054375;28;45302;-73
2023/07/23 02:57:14;;;;;;;;;4.00;3.00;;;;;-147.70;100.00;61350.09;5058312;28;46762;-74
2023/07/23 02:59:40;;;;;;;;;3.00;3.00;;;;;-147.70;100.00;61350.09;5046350;28;45430;-74
2023/07/23 03:02:05;;;;;;;;;5.00;5.00;;;;;-147.70;100.00;61350.09;5038168;28;45275;-74
2023/07/23 03:04:31;;;;;;;;;5.67;5.00;;;;;-147.70;100.00;61350.09;5038239;28;45373;-74
2023/07/23 03:06:56;;;;;;;;;4.33;3.00;;;;;-147.70;100.00;61350.09;5068878;28;46048;-73
2023/07/23 03:09:22;;;;;;;;;6.67;4.00;;;;;-147.70;100.00;61350.09;5078573;28;45258;-74
2023/07/23 03:11:47;;;;;;;;;5.00;5.00;;;;;-147.70;100.00;61350.09;5077920;27;45483;-73
2023/07/23 03:14:13;;;;;;;;;6.33;4.00;;;;;-147.70;100.00;61350.09;5060580;28;45243;-73
2023/07/23 03:16:38;;;;;;;;;4.67;4.33;;;;;-147.70;100.00;61350.09;5077985;28;46606;-73
2023/07/23 03:19:03;;;;;;;;;5.00;5.00;;;;;-147.70;100.00;61350.09;5078181;28;45329;-72
2023/07/23 03:21:29;;;;;;;;;4.00;4.00;;;;;-147.70;100.00;61350.09;5078358;28;45208;-74
2023/07/23 03:23:54;;;;;;;;;7.67;5.00;;;;;-147.70;100.00;61350.09;5077937;28;45315;-73
2023/07/23 03:26:19;;;;;;;;;4.00;4.00;;;;;-147.70;100.00;61350.09;5078059;28;45482;-73
2023/07/23 03:28:45;;;;;;;;;5.00;4.67;;;;;-147.70;100.00;61350.09;5076701;28;45334;-72
2023/07/23 03:31:11;;;;;;;;;7.33;4.33;;;;;-147.70;100.00;61350.09;5077951;28;45383;-74
2023/07/23 03:33:36;;;;;;;;;6.00;3.33;;;;;-147.70;100.00;61350.09;5077955;28;45412;-73
2023/07/23 03:36:02;;;;;;;;;4.67;3.67;;;;;-147.70;100.00;61350.09;5077944;28;45336;-75
2023/07/23 03:38:27;;;;;;;;;5.33;4.67;;;;;-147.70;100.00;61350.09;5077867;28;45435;-74
2023/07/23 03:40:52;;;;;;;;;8.00;6.00;;;;;-147.70;100.00;61350.09;5077954;28;45389;-74
2023/07/23 03:43:18;;;;;;;;;7.33;6.67;;;;;-147.70;100.00;61350.09;5078138;28;45451;-74
2023/07/23 03:45:43;;;;;;;;;8.00;7.00;;;;;-147.70;100.00;61350.09;5077056;28;45886;-74
2023/07/23 03:48:09;;;;;;;;;8.00;8.00;;;;;-147.70;100.00;61350.09;5077640;28;45383;-74
2023/07/23 03:50:34;;;;;;;;;12.00;12.00;;;;;-147.70;100.00;61350.09;5077987;28;45723;-74
2023/07/23 03:52:59;;;;;;;;;14.00;10.67;;;;;-147.70;100.00;61350.09;5077762;28;45584;-74
2023/07/23 03:55:25;;;;;;;;;11.00;8.33;;;;;-147.70;100.00;61350.09;5077570;28;46218;-74
2023/07/23 03:57:50;;;;;;;;;7.00;7.00;;;;;-147.70;100.00;61350.09;5077642;28;45435;-73
2023/07/23 04:00:15;;;;;;;;;7.33;6.00;;;;;-147.70;100.00;61350.09;5077453;28;45958;-74
2023/07/23 04:02:42;;;;;;;;;8.33;6.33;;;;;-147.70;100.00;61350.09;5078045;28;45332;-73
2023/07/23 04:05:08;;;;;;;;;7.00;7.00;;;;;-147.70;100.00;61350.09;5073308;28;46767;-74
2023/07/23 04:07:34;;;;;;;;;4.67;4.00;;;;;-147.70;100.00;61350.09;5056956;28;45314;-74
2023/07/23 04:09:59;;;;;;;;;4.00;4.00;;;;;-147.70;100.00;61350.09;5044146;28;45236;-74
2023/07/23 04:12:24;;;;;;;;;6.00;4.33;;;;;-147.70;100.00;61350.09;5037103;28;45401;-75
2023/07/23 04:14:49;;;;;;;;;5.33;4.33;;;;;-147.70;100.00;61350.09;5036897;28;46219;-75
2023/07/23 04:17:15;;;;;;;;;7.00;4.00;;;;;-147.70;100.00;61350.09;5036862;28;45461;-74
2023/07/23 04:19:40;;;;;;;;;8.33;5.00;;;;;-147.70;100.00;61350.09;5036740;28;45566;-75
2023/07/23 04:22:05;;;;;;;;;5.00;4.00;;;;;-147.70;100.00;61350.09;5037084;28;45318;-75
2023/07/23 04:24:31;;;;;;;;;6.67;5.00;;;;;-147.70;100.00;61350.09;5036266;28;45731;-74
2023/07/23 04:26:56;;;;;;;;;2.33;2.33;;;;;-147.70;100.00;61350.09;5036708;28;45349;-74
2023/07/23 04:29:22;;;;;;;;;5.00;5.00;;;;;-147.70;100.00;61350.09;5048934;28;45282;-73
2023/07/23 04:31:47;;;;;;;;;4.33;4.33;;;;;-147.70;100.00;61350.09;5056785;28;45374;-73
2023/07/23 04:34:12;;;;;;;;;5.33;4.33;;;;;-147.70;100.00;61350.09;5054231;28;46535;-73
2023/07/23 04:36:38;;;;;;;;;4.33;4.33;;;;;-147.70;100.00;61350.09;5049685;28;45291;-74
2023/07/23 04:39:03;;;;;;;;;6.33;5.00;;;;;-147.70;100.00;61350.09;5056942;28;45599;-74
2023/07/23 04:41:30;;;;;;;;;7.00;5.00;;;;;-147.70;100.00;61350.09;5055150;28;45430;-74
2023/07/23 04:43:55;;;;;;;;;6.00;4.00;;;;;-147.70;100.00;61350.09;5054519;28;45425;-73
2023/07/23 04:46:21;;;;;;;;;8.33;6.00;;;;;-147.70;100.00;61350.09;5036428;28;45419;-75
2023/07/23 04:48:46;;;;;;;;;6.33;5.00;;;;;-147.70;100.00;61350.09;5036642;28;45204;-74
2023/07/23 04:51:11;;;;;;;;;3.00;2.00;;;;;-147.70;100.00;61350.09;5053158;28;45306;-74
2023/07/23 04:53:37;;;;;;;;;6.67;5.00;;;;;-147.70;100.00;61350.09;5056227;28;46085;-73
2023/07/23 04:56:04;;;;;;;;;4.00;4.00;;;;;-147.70;100.00;61350.09;5036360;28;45424;-73
2023/07/23 04:58:30;;;;;;;;;4.00;4.00;;;;;-147.70;100.00;61350.09;5045212;28;45325;-73
2023/07/23 05:00:58;;;;;;;;;4.00;4.00;;;;;-147.70;100.00;61350.09;5052435;28;45350;-72
2023/07/23 05:03:24;;;;;;;;;6.00;4.33;;;;;-147.70;100.00;61350.09;5039600;28;47135;-74
2023/07/23 05:05:50;;;;;;;;;3.00;3.00;;;;;-147.70;100.00;61350.09;5047565;28;45491;-75
2023/07/23 05:08:19;;;;;;;;;6.00;5.00;;;;;-147.70;100.00;61350.09;5059770;28;45401;-74
2023/07/23 05:10:46;;;;;;;;;5.00;4.00;;;;;-147.70;100.00;61350.09;5059942;28;45485;-74
2023/07/23 05:13:12;;;;;;;;;4.67;3.67;;;;;-147.70;100.00;61350.09;5059801;28;45676;-74
2023/07/23 05:15:37;;;;;;;;;6.33;4.33;;;;;-147.70;100.00;61350.09;5059338;28;45480;-74
2023/07/23 05:18:03;;;;;;;;;6.00;5.00;;;;;-147.70;100.00;61350.09;5056857;28;45372;-72
2023/07/23 05:20:28;;;;;;;;;6.00;6.00;;;;;-147.70;100.00;61350.09;5059812;28;45479;-74
2023/07/23 05:22:55;;;;;;;;;5.67;5.67;;;;;-147.70;100.00;61350.09;5059244;28;46072;-74
2023/07/23 05:25:20;;;;;;;;;7.00;5.33;;;;;-147.70;100.00;61350.09;5059509;28;45205;-73
2023/07/23 05:27:45;;;;;;;;;4.67;4.67;;;;;-147.70;100.00;61350.09;5059345;28;45370;-74
2023/07/23 05:30:11;;;;;;;;;4.00;4.00;;;;;-147.70;100.00;61350.09;5057140;28;45481;-73
2023/07/23 05:32:36;;;;;;;;;4.33;4.33;;;;;-147.70;100.00;61350.09;5059059;28;47314;-73
2023/07/23 05:35:02;;;;;;;;;5.67;5.00;;;;;-147.70;100.00;61350.09;5059196;28;45232;-73
2023/07/23 05:37:27;;;;;;;;;8.00;4.00;;;;;-147.70;100.00;61350.09;5059505;28;45180;-73
2023/07/23 05:39:53;;;;;;;;;3.00;3.00;;;;;-147.70;100.00;61350.09;5059423;28;45243;-74
2023/07/23 05:42:21;;;;;;;;;7.00;4.00;;;;;-147.70;100.00;61350.09;5058999;28;46310;-74
2023/07/23 05:44:47;;;;;;;;;9.67;7.00;;;;;-147.70;100.00;61350.09;5059317;28;45327;-74
2023/07/23 05:47:12;;;;;;;;;5.00;3.67;;;;;-147.70;100.00;61350.09;5057872;28;45400;-74
2023/07/23 05:49:38;;;;;;;;;6.00;5.00;;;;;-147.70;100.00;61350.09;5059584;28;45653;-74
2023/07/23 05:52:05;;;;;;;;;4.00;3.00;;;;;-147.70;100.00;61350.09;5058841;28;45856;-74
2023/07/23 05:54:30;;;;;;;;;6.67;5.00;;;;;-147.70;100.00;61350.09;5057760;28;45270;-74
2023/07/23 05:56:55;;;;;;;;;6.67;5.00;;;;;-147.70;100.00;61350.09;5059223;28;45674;-73
2023/07/23 05:59:21;;;;;;;;;7.33;7.33;;;;;-147.70;100.00;61350.09;5059448;28;45378;-73
2023/07/23 06:01:46;;;;;;;;;7.00;7.00;;;;;-147.70;100.00;61350.09;5058686;28;45297;-74
2023/07/23 06:04:11;;;;;;;;;7.67;5.00;;;;;-147.70;100.00;61350.09;5058692;28;45489;-74
2023/07/23 06:06:37;;;;;;;;;6.00;4.00;;;;;-147.70;100.00;61350.09;5058809;28;45302;-72
2023/07/23 06:09:05;;;;;;;;;5.33;5.00;;;;;-147.70;100.00;61350.09;5058265;28;45673;-73
2023/07/23 06:11:31;;;;;;;;;7.67;5.33;;;;;-147.70;100.00;61350.09;5058922;28;47184;-68
2023/07/23 06:13:58;;;;;;;;;4.00;3.67;;;;;-147.70;100.00;61350.09;5058787;28;45410;-69
2023/07/23 06:16:23;;;;;;;;;4.67;4.00;;;;;-147.70;100.00;61350.09;5059062;28;45460;-70
2023/07/23 06:18:49;;;;;;;;;11.00;6.00;;;;;-147.70;100.00;61350.09;5059281;28;45322;-69
2023/07/23 06:21:14;;;;;;;;;5.00;5.00;;;;;-147.70;100.00;61350.09;5058594;28;46421;-70
2023/07/23 06:23:39;;;;;;;;;7.33;4.67;;;;;-147.70;100.00;61350.09;5058699;28;45315;-70
2023/07/23 06:26:05;;;;;;;;;6.00;4.33;;;;;-147.70;100.00;61350.09;5044485;28;45252;-68
2023/07/23 06:28:31;;;;;;;;;5.00;4.00;;;;;-147.70;100.00;61350.09;5039363;28;45306;-72
2023/07/23 06:30:56;;;;;;;;;4.00;4.00;;;;;-147.70;100.00;61350.09;5058057;28;46354;-70
2023/07/23 06:33:21;;;;;;;;;7.00;5.00;;;;;-147.70;100.00;61350.09;5058345;28;45353;-69
2023/07/23 06:35:47;;;;;;;;;5.00;5.00;;;;;-147.70;100.00;61350.09;5052468;28;45212;-71
2023/07/23 06:38:14;;;;;;;;;6.00;6.00;;;;;-147.70;100.00;61350.09;5053477;28;45434;-73
2023/07/23 06:40:47;;;;;;;;;8.00;5.00;;;;;-147.70;100.00;61350.09;5038192;28;46160;-74
2023/07/23 06:43:13;;;;;;;;;4.00;4.00;;;;;-147.70;100.00;61350.09;5055392;28;45172;-73
2023/07/23 06:45:39;;;;;;;;;4.67;3.67;;;;;-147.70;100.00;61350.09;5058343;28;45250;-72
2023/07/23 06:48:04;;;;;;;;;4.33;4.00;;;;;-147.70;100.00;61350.09;5058674;28;45419;-68
2023/07/23 06:50:31;;;;;;;;;7.00;5.00;;;;;-147.70;100.00;61350.09;5057968;28;47455;-68
2023/07/23 06:52:56;;;;;;;;;5.00;4.00;;;;;-147.70;100.00;61350.09;5058014;28;45479;-70
2023/07/23 06:55:22;;;;;;;;;4.00;4.00;;;;;-147.70;100.00;61350.09;5052058;28;45357;-71
2023/07/23 06:57:47;;;;;;;;;5.67;4.67;;;;;-147.70;100.00;61350.09;5046839;28;45283;-70
2023/07/23 07:00:13;;;;;;;;;4.67;4.00;;;;;-147.70;100.00;61350.09;5043396;28;46265;-72
2023/07/23 07:02:38;;;;;;;;;5.00;5.00;;;;;-147.70;100.00;61350.09;5058167;28;45495;-71
2023/07/23 07:05:04;;;;;;;;;5.00;5.00;;;;;-147.70;100.00;61350.09;5057975;28;45493;-72
2023/07/23 07:07:29;;;;;;;;;5.00;3.33;;;;;-147.70;100.00;61350.09;5078665;28;45419;-70
2023/07/23 07:09:54;;;;;;;;;6.67;5.33;;;;;-147.70;100.00;61350.09;5059701;28;45424;-70
2023/07/23 07:12:20;;;;;;;;;5.67;3.33;;;;;-147.70;100.00;61350.09;5074076;28;45457;-71
2023/07/23 07:14:46;;;;;;;;;7.67;5.33;;;;;-147.70;100.00;61350.09;5063041;27;45270;-71
2023/07/23 07:17:11;;;;;;;;;7.00;3.00;;;;;-147.70;100.00;61350.09;5078096;28;45436;-72
2023/07/23 07:19:36;;;;;;;;;3.33;3.33;;;;;-147.70;100.00;61350.09;5078190;28;46116;-72
2023/07/23 07:22:02;;;;;;;;;5.67;4.33;;;;;-147.70;100.00;61350.09;5075521;28;45423;-72
2023/07/23 07:24:28;;;;;;;;;5.00;4.67;;;;;-147.70;100.00;61350.09;5077287;28;45248;-73
2023/07/23 07:26:54;;;;;;;;;7.00;6.00;;;;;-147.70;100.00;61350.09;5060939;28;45434;-72
2023/07/23 07:29:19;;;;;;;;;5.00;5.00;;;;;-147.70;100.00;61350.09;5075954;28;46206;-71
2023/07/23 07:31:45;;;;;;;;;5.00;5.00;;;;;-147.70;100.00;61350.09;5075515;28;45195;-71
2023/07/23 07:34:11;;;;;;;;;5.00;5.00;;;;;-147.70;100.00;61350.09;5075376;28;45430;-71
2023/07/23 07:36:38;;;;;;;;;8.67;4.67;;;;;-147.70;100.00;61350.09;5057902;28;45500;-72
2023/07/23 07:39:04;;;;;;;;;5.33;5.00;;;;;-147.70;100.00;61350.09;5057119;28;46994;-71
2023/07/23 07:41:29;;;;;;;;;5.00;5.00;;;;;-147.70;100.00;61350.09;5065070;28;45867;-71
2023/07/23 07:43:55;;;;;;;;;5.00;3.00;;;;;-147.70;100.00;61350.09;5078110;28;45350;-71
2023/07/23 07:46:20;;;;;;;;;4.33;3.33;;;;;-147.70;100.00;61350.09;5078038;28;45342;-72
2023/07/23 07:48:46;;;;;;;;;5.33;4.33;;;;;-147.70;100.00;61350.09;5077835;28;46817;-72
2023/07/23 07:51:11;;;;;;;;;4.67;4.67;;;;;-147.70;100.00;61350.09;5062487;28;45476;-72
2023/07/23 07:53:38;;;;;;;;;6.67;3.00;;;;;-147.70;100.00;61350.09;5066360;28;45445;-72
2023/07/23 07:56:04;;;;;;;;;8.00;5.00;;;;;-147.70;100.00;61350.09;5077582;28;45472;-70
2023/07/23 07:58:30;;;;;;;;;8.67;6.67;;;;;-147.70;100.00;61350.09;5077500;28;46542;-70
2023/07/23 08:00:59;;;;;;;;;5.00;4.00;;;;;-147.70;100.00;61350.09;5049782;28;45435;-70
2023/07/23 08:03:27;;;;;;;;;3.67;3.67;;;;;-147.70;100.00;61350.09;5057612;28;45417;-70
2023/07/23 08:05:53;;;;;;;;;5.00;5.00;;;;;-147.70;100.00;61350.09;5060308;28;45417;-70
2023/07/23 08:08:27;;;;;;;;;5.33;3.67;;;;;-147.70;100.00;61350.09;5077062;28;47372;-70
2023/07/23 08:10:55;;;;;;;;;4.33;3.00;;;;;-147.70;100.00;61350.09;5055597;28;45338;-70
2023/07/23 08:13:21;;;;;;;;;3.00;3.00;;;;;-147.70;100.00;61350.09;5063142;28;45359;-70
2023/07/23 08:15:47;;;;;;;;;2.33;1.00;;;;;-147.70;100.00;61350.09;5077472;28;45449;-72
2023/07/23 08:18:13;;;;;;;;;3.00;3.00;;;;;-147.70;100.00;61350.09;5071534;28;46293;-71
2023/07/23 08:20:39;;;;;;;;;3.67;3.00;;;;;-147.70;100.00;61350.09;5066301;28;45682;-72
2023/07/23 08:23:04;;;;;;;;;2.00;2.00;;;;;-147.70;100.00;61350.09;5063587;28;45335;-71
2023/07/23 08:25:30;;;;;;;;;4.33;4.00;;;;;-147.70;100.00;61350.09;5069693;28;45578;-71
2023/07/23 08:28:01;;;;;;;;;4.00;4.00;;;;;-147.70;100.00;61350.09;5066407;28;45539;-71
2023/07/23 08:30:30;;;;;;;;;4.00;4.00;;;;;-147.70;100.00;61350.09;5063235;28;45377;-71
2023/07/23 08:32:58;;;;;;;;;4.00;2.33;;;;;-147.70;100.00;61350.09;5074402;28;45286;-71
2023/07/23 08:35:25;;;;;;;;;2.25;2.00;;;;;-147.70;100.00;61350.09;5060701;28;45323;-71
2023/07/23 08:37:51;;;;;;;;;3.67;3.00;;;;;-147.70;100.00;61350.09;5063285;28;47465;-71
2023/07/23 08:40:18;;;;;;;;;4.00;4.00;;;;;-147.70;100.00;61350.09;5079987;28;45317;-72
2023/07/23 08:43:06;;;;;;;;;3.00;3.00;;;;;-147.70;100.00;61350.09;5071679;28;45502;-73
2023/07/23 08:45:50;;;;;;;;;4.00;4.00;;;;;-147.70;100.00;61350.09;5060103;28;45460;-74
2023/07/23 08:48:19;;;;;;;;;4.33;4.00;;;;;-147.70;100.00;61350.09;5059849;28;46549;-70
2023/07/23 08:50:47;;;;;;;;;2.00;2.00;;;;;-147.70;100.00;61350.09;5077487;28;45377;-71
2023/07/23 08:53:15;;;;;;;;;4.00;3.00;;;;;-147.70;100.00;61350.09;5076803;28;45364;-69
2023/07/23 08:55:45;;;;;;;;;4.00;2.33;;;;;-147.70;100.00;61350.09;5064470;28;45325;-70
2023/07/23 08:58:18;;;;;;;;;3.33;3.33;;;;;-147.70;100.00;61350.09;5059917;28;45529;-71
2023/07/23 09:00:45;;;;;;;;;3.67;3.67;;;;;-147.70;100.00;61350.09;5059851;28;45326;-68
2023/07/23 09:03:12;;;;;;;;;2.00;2.00;;;;;-147.70;100.00;61350.09;5068203;28;45380;-70
2023/07/23 09:05:39;;;;;;;;;3.67;3.67;;;;;-147.70;100.00;61350.09;5074292;28;45305;-69
2023/07/23 09:08:05;;;;;;;;;5.00;5.00;;;;;-147.70;100.00;61350.09;5071333;28;45538;-72
2023/07/23 09:10:30;;;;;;;;;5.67;3.67;;;;;-147.70;100.00;61350.09;5076500;28;45315;-73
2023/07/23 09:12:56;;;;;;;;;3.33;3.33;;;;;-147.70;100.00;61350.09;5067245;28;45549;-72
2023/07/23 09:15:21;;;;;;;;;5.00;3.67;;;;;-147.70;100.00;61350.09;5065463;28;45497;-73
2023/07/23 09:17:50;;;;;;;;;3.00;3.00;;;;;-147.70;100.00;61350.09;5068118;28;46594;-71
2023/07/23 09:20:19;;;;;;;;;3.00;3.00;;;;;-147.70;100.00;61350.09;5079447;28;45502;-77
2023/07/23 09:22:48;;;;;;;;;2.00;2.00;;;;;-147.70;100.00;61350.09;5076946;27;45392;-75
2023/07/23 09:25:13;;;;;;;;;5.67;4.00;;;;;-147.70;100.00;61350.09;5075407;27;45385;-75
2023/07/23 09:27:42;;;;;;;;;2.00;2.00;;;;;-147.70;100.00;61350.09;5064280;28;45455;-74
2023/07/23 09:30:17;;;;;;;;;3.00;3.00;;;;;-147.70;100.00;61350.09;5072587;27;45879;-75
2023/07/23 09:32:42;;;;;;;;;4.00;4.00;;;;;-147.70;100.00;61350.09;5066889;28;45417;-76
2023/07/23 09:35:08;;;;;;;;;2.00;2.00;;;;;-147.70;100.00;61350.09;5074120;28;45535;-71
2023/07/23 09:37:35;;;;;;;;;4.00;3.33;;;;;-147.70;100.00;61350.09;5076142;28;45352;-71
2023/07/23 09:40:00;;;;;;;;;8.00;7.00;;;;;-147.70;100.00;61350.09;5059309;28;45776;-68
2023/07/23 09:42:26;;;;;;;;;5.00;3.00;;;;;-147.70;100.00;61350.09;5073737;28;45360;-74
2023/07/23 09:44:51;;;;;;;;;4.67;4.00;;;;;-147.70;100.00;61350.09;5068272;28;45414;-74
2023/07/23 09:47:27;;;;;;;;;1.67;1.67;;;;;-147.70;100.00;61350.09;5075408;28;47086;-73
2023/07/23 09:49:53;;;;;;;;;3.67;2.33;;;;;-147.70;100.00;61350.09;5069869;28;45492;-72
2023/07/23 09:52:22;;;;;;;;;4.00;4.00;;;;;-147.70;100.00;61350.09;5059689;28;45510;-72
2023/07/23 09:54:47;;;;;;;;;4.67;4.00;;;;;-147.70;100.00;61350.09;5073170;28;45368;-72
2023/07/23 09:57:13;;;;;;;;;3.00;3.00;;;;;-147.70;100.00;61350.09;5066725;28;46445;-73
2023/07/23 09:59:39;;;;;;;;;3.67;3.00;;;;;-147.70;100.00;61350.09;5073285;28;45351;-70
2023/07/23 10:02:09;;;;;;;;;1.00;1.00;;;;;-147.70;100.00;61350.09;5069700;28;45421;-73
2023/07/23 10:04:35;;;;;;;;;2.00;0.67;;;;;-147.70;100.00;61350.09;5066823;28;45416;-73
2023/07/23 10:07:02;;;;;;;;;5.00;3.00;;;;;-147.70;100.00;61350.09;5069385;28;46531;-74
2023/07/23 10:09:28;;;;;;;;;2.67;2.67;;;;;-147.70;100.00;61350.09;5059217;28;45406;-73
2023/07/23 10:11:53;;;;;;;;;2.33;2.33;;;;;-147.70;100.00;61350.09;5059369;28;45420;-73
2023/07/23 10:14:20;;;;;;;;;7.33;4.00;;;;;-147.70;100.00;61350.09;5059418;28;45477;-73
2023/07/23 10:16:48;;;;;;;;;3.00;3.00;;;;;-147.70;100.00;61350.09;5072062;28;46480;-73
2023/07/23 10:19:14;;;;;;;;;4.33;3.00;;;;;-147.70;100.00;61350.09;5078246;28;45527;-73
2023/07/23 10:21:40;;;;;;;;;2.00;2.00;;;;;-147.70;100.00;61350.09;5071345;28;45495;-73
2023/07/23 10:24:05;;;;;;;;;2.67;2.00;;;;;-147.70;100.00;61350.09;5065620;28;45231;-73
2023/07/23 10:26:39;;;;;;;;;3.00;3.00;;;;;-147.70;100.00;61350.09;5078709;28;45514;-72
2023/07/23 10:29:14;;;;;;;;;2.00;2.00;;;;;-147.70;100.00;61350.09;5079038;28;45393;-73
2023/07/23 10:31:42;;;;;;;;;7.00;3.33;;;;;-147.70;100.00;61350.09;5066443;28;46977;-73
2023/07/23 10:34:23;;;;;;;;;4.33;1.67;;;;;-147.70;100.00;61350.09;5078306;28;45487;-73
2023/07/23 10:37:19;;;;;;;;;1.00;1.00;;;;;-147.70;100.00;61350.09;5078862;28;46593;-72
2023/07/23 10:39:49;;;;;;;;;2.00;2.00;;;;;-147.70;100.00;61350.09;5078257;28;45413;-72
2023/07/23 10:42:38;;;;;;;;;2.00;2.00;;;;;-147.70;100.00;61350.09;5081661;27;45498;-72
2023/07/23 10:45:22;;;;;;;;;2.33;2.33;;;;;-147.70;100.00;61350.09;5031807;28;45798;-71
2023/07/23 10:47:47;;;;;;;;;2.00;2.00;;;;;-147.70;100.00;61350.09;5035630;28;46243;-72
2023/07/23 10:50:14;;;;;;;;;3.00;3.00;;;;;-147.70;100.00;61350.09;5035383;28;45348;-71
2023/07/23 10:52:44;;;;;;;;;2.33;2.33;;;;;-147.70;100.00;61350.09;5035970;28;45535;-71
2023/07/23 10:55:09;;;;;;;;;4.00;2.67;;;;;-147.70;100.00;61350.09;5037839;28;45565;-71
2023/07/23 10:57:40;;;;;;;;;2.67;2.67;;;;;-147.70;100.00;61350.09;5034937;28;46232;-72
2023/07/23 11:00:20;;;;;;;;;3.00;2.00;;;;;-147.70;100.00;61350.09;5034295;28;45655;-70
2023/07/23 11:02:49;;;;;;;;;2.00;2.00;;;;;-147.70;100.00;61350.09;5035722;28;45480;-71
2023/07/23 11:05:15;;;;;;;;;5.00;5.00;;;;;-147.70;100.00;61350.09;5035376;28;45365;-70
2023/07/23 11:07:40;;;;;;;;;2.67;2.67;;;;;-147.70;100.00;61350.09;5035157;28;46423;-71